createdAt,value
2023-04-09T00:00:47.494Z,7.73
2023-04-09T00:01:47.540Z,7.72
2023-04-09T00:02:47.624Z,7.72
2023-04-09T00:03:47.654Z,7.71
2023-04-09T00:04:47.503Z,7.70
2023-04-09T00:05:47.447Z,7.70
2023-04-09T00:06:47.459Z,7.69
2023-04-09T00:07:47.548Z,7.68
2023-04-09T00:08:47.481Z,7.67
2023-04-09T00:09:47.438Z,7.67
2023-04-09T00:10:47.402Z,7.66
2023-04-09T00:11:47.427Z,7.65
2023-04-09T00:12:47.411Z,7.64
2023-04-09T00:13:47.381Z,7.64
2023-04-09T00:14:47.443Z,7.64
2023-04-09T00:15:47.339Z,7.63
2023-04-09T00:16:47.470Z,7.63
2023-04-09T00:17:47.406Z,7.63
2023-04-09T00:18:47.304Z,7.63
2023-04-09T00:19:47.321Z,7.62
2023-04-09T00:20:47.308Z,7.62
2023-04-09T00:21:47.374Z,7.61
2023-04-09T00:22:47.294Z,7.61
2023-04-09T00:23:47.314Z,7.61
2023-04-09T00:24:47.292Z,7.60
2023-04-09T00:25:47.294Z,7.60
2023-04-09T00:26:47.367Z,7.59
2023-04-09T00:27:47.263Z,7.59
2023-04-09T00:28:47.229Z,7.59
2023-04-09T00:29:47.210Z,7.58
2023-04-09T00:30:47.241Z,7.58
2023-04-09T00:31:47.192Z,7.58
2023-04-09T00:32:47.383Z,7.57
2023-04-09T00:33:47.180Z,7.57
2023-04-09T00:34:47.156Z,7.57
2023-04-09T00:35:47.243Z,7.57
2023-04-09T00:36:47.141Z,7.57
2023-04-09T00:37:47.152Z,7.57
2023-04-09T00:38:47.116Z,7.57
2023-04-09T00:39:47.105Z,7.57
2023-04-09T00:40:47.097Z,7.56
2023-04-09T00:41:47.134Z,7.56
2023-04-09T00:42:47.096Z,7.55
2023-04-09T00:43:47.239Z,7.55
2023-04-09T00:44:47.045Z,7.55
2023-04-09T00:45:47.134Z,7.54
2023-04-09T00:46:47.054Z,7.54
2023-04-09T00:47:47.031Z,7.53
2023-04-09T00:48:46.983Z,7.53
2023-04-09T00:49:47.051Z,7.52
2023-04-09T00:50:46.990Z,7.52
2023-04-09T00:51:47.063Z,7.51
2023-04-09T00:52:46.960Z,7.51
2023-04-09T00:53:46.942Z,7.50
2023-04-09T00:54:46.948Z,7.50
2023-04-09T00:55:46.899Z,7.49
2023-04-09T00:56:46.915Z,7.48
2023-04-09T00:57:46.922Z,7.47
2023-04-09T00:58:46.942Z,7.47
2023-04-09T00:59:46.965Z,7.46
2023-04-09T01:00:46.946Z,7.45
2023-04-09T01:01:46.974Z,7.45
2023-04-09T01:02:47.103Z,7.44
2023-04-09T01:03:46.921Z,7.43
2023-04-09T01:04:46.858Z,7.43
2023-04-09T01:05:46.834Z,7.42
2023-04-09T01:06:46.866Z,7.41
2023-04-09T01:07:46.804Z,7.41
2023-04-09T01:08:46.808Z,7.40
2023-04-09T01:09:46.810Z,7.40
2023-04-09T01:10:46.858Z,7.39
2023-04-09T01:11:46.786Z,7.39
2023-04-09T01:12:46.803Z,7.39
2023-04-09T01:13:46.826Z,7.38
2023-04-09T01:14:46.778Z,7.38
2023-04-09T01:15:46.747Z,7.38
2023-04-09T01:16:46.845Z,7.37
2023-04-09T01:17:46.786Z,7.36
2023-04-09T01:18:46.692Z,7.36
2023-04-09T01:19:46.668Z,7.35
2023-04-09T01:20:46.746Z,7.34
2023-04-09T01:21:46.685Z,7.33
2023-04-09T01:22:46.646Z,7.32
2023-04-09T01:23:46.641Z,7.31
2023-04-09T01:24:46.597Z,7.30
2023-04-09T01:25:46.637Z,7.29
2023-04-09T01:26:46.623Z,7.28
2023-04-09T01:27:46.708Z,7.28
2023-04-09T01:28:46.573Z,7.27
2023-04-09T01:29:46.584Z,7.26
2023-04-09T01:30:46.608Z,7.25
2023-04-09T01:31:46.547Z,7.25
2023-04-09T01:32:46.631Z,7.24
2023-04-09T01:33:46.614Z,7.23
2023-04-09T01:34:46.541Z,7.22
2023-04-09T01:35:46.600Z,7.21
2023-04-09T01:36:46.511Z,7.21
2023-04-09T01:37:46.605Z,7.20
2023-04-09T01:38:46.596Z,7.19
2023-04-09T01:39:46.514Z,7.18
2023-04-09T01:40:46.555Z,7.18
2023-04-09T01:41:46.459Z,7.17
2023-04-09T01:42:46.422Z,7.17
2023-04-09T01:43:46.467Z,7.16
2023-04-09T01:44:46.416Z,7.16
2023-04-09T01:45:46.558Z,7.15
2023-04-09T01:46:46.403Z,7.15
2023-04-09T01:47:46.431Z,7.14
2023-04-09T01:48:46.403Z,7.14
2023-04-09T01:49:46.363Z,7.13
2023-04-09T01:50:46.360Z,7.13
2023-04-09T01:51:46.402Z,7.12
2023-04-09T01:52:46.333Z,7.12
2023-04-09T01:53:46.428Z,7.11
2023-04-09T01:54:46.339Z,7.11
2023-04-09T01:55:46.337Z,7.10
2023-04-09T01:56:46.261Z,7.09
2023-04-09T01:57:46.356Z,7.08
2023-04-09T01:58:46.236Z,7.07
2023-04-09T01:59:46.258Z,7.05
2023-04-09T02:00:46.280Z,7.05
2023-04-09T02:01:46.488Z,7.04
2023-04-09T02:02:46.312Z,7.03
2023-04-09T02:03:46.269Z,7.02
2023-04-09T02:04:46.176Z,7.01
2023-04-09T02:05:46.315Z,7.01
2023-04-09T02:06:46.195Z,7.01
2023-04-09T02:07:46.299Z,7.00
2023-04-09T02:08:46.164Z,7.00
2023-04-09T02:09:46.197Z,6.99
2023-04-09T02:10:46.234Z,6.99
2023-04-09T02:11:46.231Z,6.98
2023-04-09T02:12:46.169Z,6.96
2023-04-09T02:13:46.148Z,6.95
2023-04-09T02:14:46.109Z,6.94
2023-04-09T02:15:46.127Z,6.93
2023-04-09T02:16:46.238Z,6.92
2023-04-09T02:17:46.111Z,6.92
2023-04-09T02:18:46.104Z,6.91
2023-04-09T02:19:46.088Z,6.90
2023-04-09T02:20:46.012Z,6.90
2023-04-09T02:21:46.086Z,6.89
2023-04-09T02:22:45.985Z,6.89
2023-04-09T02:23:45.977Z,6.88
2023-04-09T02:24:45.984Z,6.88
2023-04-09T02:25:45.966Z,6.87
2023-04-09T02:26:46.001Z,6.86
2023-04-09T02:27:45.950Z,6.85
2023-04-09T02:28:46.003Z,6.84
2023-04-09T02:29:45.928Z,6.83
2023-04-09T02:30:45.902Z,6.82
2023-04-09T02:31:45.983Z,6.80
2023-04-09T02:32:46.005Z,6.79
2023-04-09T02:33:45.958Z,6.77
2023-04-09T02:34:45.882Z,6.76
2023-04-09T02:35:45.939Z,6.75
2023-04-09T02:36:45.886Z,6.73
2023-04-09T02:37:45.925Z,6.72
2023-04-09T02:38:45.818Z,6.71
2023-04-09T02:39:45.848Z,6.69
2023-04-09T02:40:45.808Z,6.68
2023-04-09T02:41:45.789Z,6.67
2023-04-09T02:42:45.907Z,6.66
2023-04-09T02:43:45.884Z,6.64
2023-04-09T02:44:45.865Z,6.63
2023-04-09T02:45:45.771Z,6.63
2023-04-09T02:46:45.791Z,6.62
2023-04-09T02:47:45.827Z,6.61
2023-04-09T02:48:45.776Z,6.60
2023-04-09T02:49:45.782Z,6.59
2023-04-09T02:50:45.802Z,6.59
2023-04-09T02:51:45.813Z,6.58
2023-04-09T02:52:45.690Z,6.57
2023-04-09T02:53:45.740Z,6.56
2023-04-09T02:54:45.640Z,6.56
2023-04-09T02:55:45.745Z,6.54
2023-04-09T02:56:45.684Z,6.53
2023-04-09T02:57:45.652Z,6.52
2023-04-09T02:58:45.629Z,6.50
2023-04-09T02:59:45.748Z,6.48
2023-04-09T03:00:45.590Z,6.47
2023-04-09T03:01:45.705Z,6.45
2023-04-09T03:02:45.673Z,6.44
2023-04-09T03:03:45.784Z,6.42
2023-04-09T03:04:45.670Z,6.41
2023-04-09T03:05:45.578Z,6.40
2023-04-09T03:06:45.586Z,6.39
2023-04-09T03:07:45.603Z,6.38
2023-04-09T03:08:45.648Z,6.37
2023-04-09T03:09:45.511Z,6.36
2023-04-09T03:10:45.459Z,6.35
2023-04-09T03:11:45.556Z,6.34
2023-04-09T03:12:45.458Z,6.33
2023-04-09T03:13:45.513Z,6.32
2023-04-09T03:14:45.514Z,6.30
2023-04-09T03:15:45.501Z,6.29
2023-04-09T03:16:45.479Z,6.28
2023-04-09T03:17:45.446Z,6.27
2023-04-09T03:18:45.456Z,6.26
2023-04-09T03:19:45.364Z,6.24
2023-04-09T03:20:45.470Z,6.23
2023-04-09T03:21:45.463Z,6.21
2023-04-09T03:22:45.443Z,6.20
2023-04-09T03:23:45.492Z,6.18
2023-04-09T03:24:45.306Z,6.15
2023-04-09T03:25:45.336Z,6.14
2023-04-09T03:26:45.337Z,6.12
2023-04-09T03:27:45.359Z,6.11
2023-04-09T03:28:45.279Z,6.09
2023-04-09T03:29:45.292Z,6.08
2023-04-09T03:30:45.341Z,6.07
2023-04-09T03:31:45.254Z,6.06
2023-04-09T03:32:45.363Z,6.05
2023-04-09T03:33:45.393Z,6.04
2023-04-09T03:34:45.230Z,6.03
2023-04-09T03:35:45.306Z,6.02
2023-04-09T03:36:45.267Z,6.00
2023-04-09T03:37:45.276Z,5.98
2023-04-09T03:38:45.317Z,5.97
2023-04-09T03:39:45.222Z,5.95
2023-04-09T03:40:45.146Z,5.94
2023-04-09T03:41:45.204Z,5.93
2023-04-09T03:42:45.201Z,5.91
2023-04-09T03:43:45.185Z,5.90
2023-04-09T03:44:45.220Z,5.88
2023-04-09T03:45:45.171Z,5.87
2023-04-09T03:46:45.132Z,5.85
2023-04-09T03:47:45.305Z,5.83
2023-04-09T03:48:45.161Z,5.81
2023-04-09T03:49:45.110Z,5.79
2023-04-09T03:50:45.068Z,5.77
2023-04-09T03:51:45.012Z,5.75
2023-04-09T03:52:45.130Z,5.73
2023-04-09T03:53:45.026Z,5.71
2023-04-09T03:54:45.083Z,5.70
2023-04-09T03:55:45.155Z,5.68
2023-04-09T03:56:45.057Z,5.67
2023-04-09T03:57:44.964Z,5.65
2023-04-09T03:58:45.025Z,5.64
2023-04-09T03:59:45.064Z,5.63
2023-04-09T04:00:44.990Z,5.62
2023-04-09T04:01:45.034Z,5.61
2023-04-09T04:02:45.172Z,5.61
2023-04-09T04:03:45.065Z,5.60
2023-04-09T04:04:45.073Z,5.59
2023-04-09T04:05:44.922Z,5.58
2023-04-09T04:06:44.897Z,5.57
2023-04-09T04:07:44.909Z,5.55
2023-04-09T04:08:44.877Z,5.54
2023-04-09T04:09:44.909Z,5.53
2023-04-09T04:10:44.942Z,5.52
2023-04-09T04:11:44.814Z,5.51
2023-04-09T04:12:44.834Z,5.51
2023-04-09T04:13:45.010Z,5.50
2023-04-09T04:14:44.909Z,5.49
2023-04-09T04:15:44.746Z,5.48
2023-04-09T04:16:44.977Z,5.47
2023-04-09T04:17:44.766Z,5.46
2023-04-09T04:18:44.747Z,5.45
2023-04-09T04:19:44.792Z,5.43
2023-04-09T04:20:44.707Z,5.42
2023-04-09T04:21:44.784Z,5.41
2023-04-09T04:22:44.865Z,5.40
2023-04-09T04:23:44.732Z,5.39
2023-04-09T04:24:44.707Z,5.38
2023-04-09T04:25:44.680Z,5.37
2023-04-09T04:26:44.664Z,5.36
2023-04-09T04:27:44.644Z,5.36
2023-04-09T04:28:44.679Z,5.35
2023-04-09T04:29:44.662Z,5.34
2023-04-09T04:30:44.776Z,5.33
2023-04-09T04:31:44.661Z,5.32
2023-04-09T04:32:44.822Z,5.31
2023-04-09T04:33:44.598Z,5.30
2023-04-09T04:34:44.577Z,5.29
2023-04-09T04:35:44.733Z,5.28
2023-04-09T04:36:44.608Z,5.27
2023-04-09T04:37:44.597Z,5.26
2023-04-09T04:38:44.505Z,5.25
2023-04-09T04:39:44.582Z,5.24
2023-04-09T04:40:44.513Z,5.23
2023-04-09T04:41:44.546Z,5.22
2023-04-09T04:42:44.538Z,5.21
2023-04-09T04:43:44.544Z,5.21
2023-04-09T04:44:44.461Z,5.20
2023-04-09T04:45:44.582Z,5.19
2023-04-09T04:46:44.479Z,5.18
2023-04-09T04:47:44.530Z,5.17
2023-04-09T04:48:44.454Z,5.16
2023-04-09T04:49:44.404Z,5.15
2023-04-09T04:50:44.473Z,5.14
2023-04-09T04:51:44.447Z,5.13
2023-04-09T04:52:44.387Z,5.13
2023-04-09T04:53:44.441Z,5.12
2023-04-09T04:54:44.419Z,5.12
2023-04-09T04:55:44.404Z,5.11
2023-04-09T04:56:44.350Z,5.10
2023-04-09T04:57:44.440Z,5.10
2023-04-09T04:58:44.339Z,5.09
2023-04-09T04:59:44.284Z,5.08
2023-04-09T05:00:44.307Z,5.08
2023-04-09T05:01:44.354Z,5.07
2023-04-09T05:02:44.392Z,5.06
2023-04-09T05:03:44.480Z,5.06
2023-04-09T05:04:44.264Z,5.05
2023-04-09T05:05:44.297Z,5.04
2023-04-09T05:06:44.234Z,5.03
2023-04-09T05:07:44.227Z,5.02
2023-04-09T05:08:44.229Z,5.01
2023-04-09T05:09:44.337Z,5.00
2023-04-09T05:10:44.204Z,4.99
2023-04-09T05:11:44.216Z,4.98
2023-04-09T05:12:44.310Z,4.98
2023-04-09T05:13:44.122Z,4.97
2023-04-09T05:14:44.222Z,4.96
2023-04-09T05:15:44.162Z,4.95
2023-04-09T05:16:44.238Z,4.95
2023-04-09T05:17:44.102Z,4.94
2023-04-09T05:18:44.194Z,4.94
2023-04-09T05:19:44.086Z,4.94
2023-04-09T05:20:44.099Z,4.93
2023-04-09T05:21:46.195Z,4.92
2023-04-09T05:22:44.067Z,4.92
2023-04-09T05:23:44.066Z,4.91
2023-04-09T05:24:44.113Z,4.90
2023-04-09T05:25:44.050Z,4.89
2023-04-09T05:26:44.051Z,4.88
2023-04-09T05:27:44.121Z,4.86
2023-04-09T05:28:44.050Z,4.85
2023-04-09T05:29:44.012Z,4.83
2023-04-09T05:30:44.027Z,4.82
2023-04-09T05:31:44.041Z,4.81
2023-04-09T05:32:43.968Z,4.80
2023-04-09T05:33:43.972Z,4.80
2023-04-09T05:34:43.943Z,4.79
2023-04-09T05:35:44.016Z,4.79
2023-04-09T05:36:43.918Z,4.79
2023-04-09T05:37:43.930Z,4.79
2023-04-09T05:38:43.908Z,4.79
2023-04-09T05:39:43.933Z,4.79
2023-04-09T05:40:43.866Z,4.79
2023-04-09T05:41:43.920Z,4.80
2023-04-09T05:42:43.836Z,4.80
2023-04-09T05:43:43.944Z,4.81
2023-04-09T05:44:43.836Z,4.81
2023-04-09T05:45:43.914Z,4.81
2023-04-09T05:46:43.856Z,4.82
2023-04-09T05:47:43.818Z,4.82
2023-04-09T05:48:43.780Z,4.83
2023-04-09T05:49:43.865Z,4.84
2023-04-09T05:50:54.086Z,4.86
2023-04-09T05:51:44.728Z,4.87
2023-04-09T05:52:43.776Z,4.89
2023-04-09T05:53:43.837Z,4.90
2023-04-09T05:54:43.793Z,4.92
2023-04-09T05:55:43.714Z,4.93
2023-04-09T05:56:43.748Z,4.95
2023-04-09T05:57:43.696Z,4.97
2023-04-09T05:58:43.791Z,4.99
2023-04-09T05:59:43.835Z,5.00
2023-04-09T06:00:43.653Z,5.02
2023-04-09T06:01:43.769Z,5.04
2023-04-09T06:02:43.667Z,5.05
2023-04-09T06:03:43.968Z,5.07
2023-04-09T06:04:43.642Z,5.08
2023-04-09T06:05:43.580Z,5.10
2023-04-09T06:06:43.709Z,5.11
2023-04-09T06:07:43.616Z,5.12
2023-04-09T06:08:43.627Z,5.14
2023-04-09T06:09:43.644Z,5.16
2023-04-09T06:10:43.550Z,5.17
2023-04-09T06:11:43.595Z,5.19
2023-04-09T06:12:43.700Z,5.21
2023-04-09T06:13:43.565Z,5.23
2023-04-09T06:14:43.630Z,5.24
2023-04-09T06:15:43.600Z,5.25
2023-04-09T06:16:43.557Z,5.26
2023-04-09T06:17:43.550Z,5.27
2023-04-09T06:18:43.459Z,5.28
2023-04-09T06:19:43.483Z,5.29
2023-04-09T06:20:43.483Z,5.30
2023-04-09T06:21:43.474Z,5.30
2023-04-09T06:22:43.525Z,5.31
2023-04-09T06:23:43.541Z,5.32
2023-04-09T06:24:43.477Z,5.32
2023-04-09T06:25:43.535Z,5.33
2023-04-09T06:26:43.544Z,5.33
2023-04-09T06:27:43.400Z,5.34
2023-04-09T06:28:43.368Z,5.35
2023-04-09T06:29:43.408Z,5.37
2023-04-09T06:30:43.370Z,5.38
2023-04-09T06:31:43.393Z,5.40
2023-04-09T06:32:53.053Z,5.42
2023-04-09T06:33:44.455Z,5.44
2023-04-09T06:34:43.324Z,5.46
2023-04-09T06:35:43.334Z,5.48
2023-04-09T06:36:43.310Z,5.50
2023-04-09T06:37:43.337Z,5.52
2023-04-09T06:38:43.322Z,5.54
2023-04-09T06:39:53.937Z,5.56
2023-04-09T06:40:44.334Z,5.58
2023-04-09T06:41:43.282Z,5.59
2023-04-09T06:42:43.306Z,5.61
2023-04-09T06:43:43.366Z,5.62
2023-04-09T06:44:43.181Z,5.63
2023-04-09T06:45:43.177Z,5.65
2023-04-09T06:46:43.254Z,5.66
2023-04-09T06:47:43.418Z,5.67
2023-04-09T06:48:43.157Z,5.68
2023-04-09T06:49:43.144Z,5.69
2023-04-09T06:50:43.148Z,5.70
2023-04-09T06:51:43.142Z,5.71
2023-04-09T06:52:43.191Z,5.71
2023-04-09T06:53:43.123Z,5.72
2023-04-09T06:54:43.075Z,5.72
2023-04-09T06:55:43.208Z,5.72
2023-04-09T06:56:43.109Z,5.73
2023-04-09T06:57:43.051Z,5.73
2023-04-09T06:58:43.151Z,5.74
2023-04-09T06:59:43.063Z,5.75
2023-04-09T07:00:43.119Z,5.77
2023-04-09T07:01:43.184Z,5.78
2023-04-09T07:02:43.306Z,5.80
2023-04-09T07:03:43.024Z,5.82
2023-04-09T07:04:43.111Z,5.85
2023-04-09T07:05:43.229Z,5.88
2023-04-09T07:06:42.949Z,5.91
2023-04-09T07:07:43.025Z,5.94
2023-04-09T07:08:43.004Z,5.97
2023-04-09T07:09:43.014Z,6.01
2023-04-09T07:10:42.997Z,6.04
2023-04-09T07:11:42.967Z,6.08
2023-04-09T07:12:42.997Z,6.11
2023-04-09T07:13:42.920Z,6.14
2023-04-09T07:14:43.053Z,6.17
2023-04-09T07:15:43.039Z,6.20
2023-04-09T07:16:42.843Z,6.23
2023-04-09T07:17:43.017Z,6.25
2023-04-09T07:18:42.874Z,6.28
2023-04-09T07:19:42.862Z,6.30
2023-04-09T07:20:42.838Z,6.33
2023-04-09T07:21:42.806Z,6.36
2023-04-09T07:22:42.982Z,6.39
2023-04-09T07:23:43.103Z,6.43
2023-04-09T07:24:42.789Z,6.46
2023-04-09T07:25:42.836Z,6.49
2023-04-09T07:26:42.857Z,6.53
2023-04-09T07:27:42.980Z,6.56
2023-04-09T07:28:42.844Z,6.59
2023-04-09T07:29:42.800Z,6.63
2023-04-09T07:30:42.859Z,6.67
2023-04-09T07:31:42.785Z,6.70
2023-04-09T07:32:42.796Z,6.74
2023-04-09T07:33:42.785Z,6.78
2023-04-09T07:34:42.684Z,6.81
2023-04-09T07:35:42.912Z,6.84
2023-04-09T07:36:43.006Z,6.87
2023-04-09T07:37:42.760Z,6.90
2023-04-09T07:38:42.675Z,6.93
2023-04-09T07:39:42.791Z,6.97
2023-04-09T07:40:42.801Z,7.01
2023-04-09T07:41:42.641Z,7.05
2023-04-09T07:42:42.782Z,7.08
2023-04-09T07:43:42.648Z,7.12
2023-04-09T07:44:42.521Z,7.16
2023-04-09T07:45:42.558Z,7.19
2023-04-09T07:46:42.668Z,7.23
2023-04-09T07:47:42.655Z,7.26
2023-04-09T07:48:42.698Z,7.30
2023-04-09T07:49:42.641Z,7.33
2023-04-09T07:50:42.687Z,7.36
2023-04-09T07:51:42.509Z,7.39
2023-04-09T07:52:42.572Z,7.42
2023-04-09T07:53:42.586Z,7.45
2023-04-09T07:54:42.514Z,7.48
2023-04-09T07:55:42.529Z,7.51
2023-04-09T07:56:42.553Z,7.53
2023-04-09T07:57:42.419Z,7.56
2023-04-09T07:58:42.511Z,7.59
2023-04-09T07:59:42.443Z,7.62
2023-04-09T08:00:42.477Z,7.65
2023-04-09T08:01:42.526Z,7.68
2023-04-09T08:02:42.581Z,7.71
2023-04-09T08:03:42.546Z,7.74
2023-04-09T08:04:42.740Z,7.78
2023-04-09T08:05:42.399Z,7.81
2023-04-09T08:06:42.340Z,7.84
2023-04-09T08:07:42.405Z,7.87
2023-04-09T08:08:42.319Z,7.90
2023-04-09T08:09:42.336Z,7.93
2023-04-09T08:10:42.312Z,7.96
2023-04-09T08:11:42.299Z,8.00
2023-04-09T08:12:42.547Z,8.03
2023-04-09T08:13:42.458Z,8.06
2023-04-09T08:14:42.407Z,8.09
2023-04-09T08:15:42.301Z,8.12
2023-04-09T08:16:42.364Z,8.15
2023-04-09T08:17:42.305Z,8.19
2023-04-09T08:18:42.260Z,8.22
2023-04-09T08:19:42.356Z,8.26
2023-04-09T08:20:42.266Z,8.30
2023-04-09T08:21:42.406Z,8.34
2023-04-09T08:22:42.279Z,8.37
2023-04-09T08:23:42.375Z,8.40
2023-04-09T08:24:42.167Z,8.43
2023-04-09T08:25:42.266Z,8.46
2023-04-09T08:26:42.286Z,8.49
2023-04-09T08:27:42.156Z,8.51
2023-04-09T08:28:42.134Z,8.54
2023-04-09T08:29:42.219Z,8.57
2023-04-09T08:30:42.185Z,8.60
2023-04-09T08:31:42.209Z,8.63
2023-04-09T08:32:42.080Z,8.65
2023-04-09T08:33:42.388Z,8.68
2023-04-09T08:34:42.201Z,8.72
2023-04-09T08:35:42.165Z,8.75
2023-04-09T08:36:42.174Z,8.79
2023-04-09T08:37:42.022Z,8.82
2023-04-09T08:38:42.136Z,8.86
2023-04-09T08:39:42.131Z,8.89
2023-04-09T08:40:42.177Z,8.93
2023-04-09T08:41:42.111Z,8.97
2023-04-09T08:42:42.050Z,9.01
2023-04-09T08:43:57.172Z,9.04
2023-04-09T08:44:42.955Z,9.08
2023-04-09T08:45:41.932Z,9.11
2023-04-09T08:46:42.033Z,9.14
2023-04-09T08:47:42.209Z,9.16
2023-04-09T08:48:42.013Z,9.18
2023-04-09T08:49:42.012Z,9.20
2023-04-09T08:50:41.896Z,9.21
2023-04-09T08:51:42.012Z,9.23
2023-04-09T08:52:41.884Z,9.24
2023-04-09T08:53:41.867Z,9.26
2023-04-09T08:54:41.906Z,9.27
2023-04-09T08:55:42.061Z,9.29
2023-04-09T08:56:41.910Z,9.31
2023-04-09T08:57:41.847Z,9.32
2023-04-09T08:58:41.814Z,9.34
2023-04-09T08:59:41.863Z,9.36
2023-04-09T09:00:42.015Z,9.38
2023-04-09T09:01:41.822Z,9.40
2023-04-09T09:02:41.773Z,9.42
2023-04-09T09:03:41.763Z,9.44
2023-04-09T09:04:41.760Z,9.46
2023-04-09T09:05:41.743Z,9.48
2023-04-09T09:06:41.680Z,9.50
2023-04-09T09:07:41.670Z,9.52
2023-04-09T09:08:41.706Z,9.54
2023-04-09T09:09:41.731Z,9.57
2023-04-09T09:10:41.637Z,9.59
2023-04-09T09:11:41.695Z,9.62
2023-04-09T09:12:41.700Z,9.65
2023-04-09T09:13:41.598Z,9.69
2023-04-09T09:14:41.622Z,9.73
2023-04-09T09:15:41.611Z,9.78
2023-04-09T09:16:41.690Z,9.81
2023-04-09T09:17:41.788Z,9.84
2023-04-09T09:18:41.559Z,9.86
2023-04-09T09:19:41.692Z,9.88
2023-04-09T09:20:41.593Z,9.89
2023-04-09T09:21:41.612Z,9.91
2023-04-09T09:22:41.649Z,9.93
2023-04-09T09:23:41.492Z,9.95
2023-04-09T09:24:41.532Z,9.98
2023-04-09T09:25:41.498Z,10.01
2023-04-09T09:26:41.529Z,10.03
2023-04-09T09:27:41.545Z,10.06
2023-04-09T09:28:41.488Z,10.08
2023-04-09T09:29:41.489Z,10.10
2023-04-09T09:30:41.514Z,10.11
2023-04-09T09:31:41.429Z,10.13
2023-04-09T09:32:41.601Z,10.14
2023-04-09T09:33:41.452Z,10.15
2023-04-09T09:34:41.424Z,10.17
2023-04-09T09:35:41.385Z,10.19
2023-04-09T09:36:41.418Z,10.21
2023-04-09T09:37:41.405Z,10.23
2023-04-09T09:38:41.309Z,10.26
2023-04-09T09:39:41.382Z,10.29
2023-04-09T09:40:41.377Z,10.32
2023-04-09T09:41:41.620Z,10.35
2023-04-09T09:42:41.342Z,10.38
2023-04-09T09:43:41.259Z,10.41
2023-04-09T09:44:41.357Z,10.44
2023-04-09T09:45:41.337Z,10.46
2023-04-09T09:46:41.619Z,10.48
2023-04-09T09:47:41.345Z,10.50
2023-04-09T09:48:41.229Z,10.52
2023-04-09T09:49:41.305Z,10.53
2023-04-09T09:50:41.170Z,10.55
2023-04-09T09:51:41.255Z,10.57
2023-04-09T09:52:41.221Z,10.59
2023-04-09T09:53:41.279Z,10.61
2023-04-09T09:54:41.226Z,10.63
2023-04-09T09:55:41.238Z,10.65
2023-04-09T09:56:41.221Z,10.68
2023-04-09T09:57:41.181Z,10.70
2023-04-09T09:58:41.131Z,10.73
2023-04-09T09:59:41.516Z,10.75
2023-04-09T10:00:41.164Z,10.76
2023-04-09T10:01:41.419Z,10.78
2023-04-09T10:02:41.638Z,10.80
2023-04-09T10:03:41.383Z,10.81
2023-04-09T10:04:41.311Z,10.83
2023-04-09T10:05:41.040Z,10.84
2023-04-09T10:06:40.998Z,10.85
2023-04-09T10:07:41.083Z,10.87
2023-04-09T10:08:41.012Z,10.88
2023-04-09T10:09:41.076Z,10.90
2023-04-09T10:10:40.989Z,10.91
2023-04-09T10:11:41.105Z,10.92
2023-04-09T10:12:41.036Z,10.94
2023-04-09T10:13:40.983Z,10.96
2023-04-09T10:14:41.034Z,10.99
2023-04-09T10:15:41.034Z,11.01
2023-04-09T10:16:40.976Z,11.03
2023-04-09T10:17:40.960Z,11.06
2023-04-09T10:18:41.021Z,11.08
2023-04-09T10:19:40.957Z,11.11
2023-04-09T10:20:41.096Z,11.13
2023-04-09T10:21:42.617Z,11.16
2023-04-09T10:22:40.910Z,11.18
2023-04-09T10:23:40.961Z,11.20
2023-04-09T10:24:40.831Z,11.21
2023-04-09T10:25:40.802Z,11.23
2023-04-09T10:26:40.846Z,11.24
2023-04-09T10:27:41.014Z,11.25
2023-04-09T10:28:40.910Z,11.25
2023-04-09T10:29:40.833Z,11.26
2023-04-09T10:30:40.831Z,11.27
2023-04-09T10:31:41.033Z,11.28
2023-04-09T10:32:40.756Z,11.29
2023-04-09T10:33:40.713Z,11.30
2023-04-09T10:34:40.793Z,11.31
2023-04-09T10:35:40.769Z,11.32
2023-04-09T10:36:40.694Z,11.33
2023-04-09T10:37:40.799Z,11.34
2023-04-09T10:38:40.677Z,11.34
2023-04-09T10:39:40.700Z,11.35
2023-04-09T10:40:40.633Z,11.36
2023-04-09T10:41:40.643Z,11.37
2023-04-09T10:42:40.625Z,11.38
2023-04-09T10:43:40.709Z,11.40
2023-04-09T10:44:40.661Z,11.42
2023-04-09T10:45:40.666Z,11.43
2023-04-09T10:46:40.696Z,11.45
2023-04-09T10:47:40.655Z,11.46
2023-04-09T10:48:40.659Z,11.48
2023-04-09T10:49:40.620Z,11.49
2023-04-09T10:50:40.576Z,11.51
2023-04-09T10:51:40.553Z,11.51
2023-04-09T10:52:40.502Z,11.52
2023-04-09T10:53:40.491Z,11.52
2023-04-09T10:54:40.585Z,11.53
2023-04-09T10:55:40.516Z,11.53
2023-04-09T10:56:40.468Z,11.53
2023-04-09T10:57:40.514Z,11.53
2023-04-09T10:58:40.484Z,11.53
2023-04-09T10:59:40.477Z,11.53
2023-04-09T11:00:40.473Z,11.53
2023-04-09T11:01:40.555Z,11.54
2023-04-09T11:02:40.670Z,11.54
2023-04-09T11:03:40.538Z,11.55
2023-04-09T11:04:40.501Z,11.55
2023-04-09T11:05:40.394Z,11.55
2023-04-09T11:06:40.407Z,11.56
2023-04-09T11:07:40.418Z,11.57
2023-04-09T11:08:40.385Z,11.57
2023-04-09T11:09:40.443Z,11.57
2023-04-09T11:10:40.308Z,11.58
2023-04-09T11:11:40.378Z,11.58
2023-04-09T11:12:40.350Z,11.58
2023-04-09T11:13:40.339Z,11.59
2023-04-09T11:14:40.316Z,11.59
2023-04-09T11:15:40.330Z,11.60
2023-04-09T11:16:40.406Z,11.60
2023-04-09T11:17:40.351Z,11.61
2023-04-09T11:18:40.296Z,11.62
2023-04-09T11:19:40.247Z,11.62
2023-04-09T11:20:40.282Z,11.63
2023-04-09T11:21:40.232Z,11.64
2023-04-09T11:22:40.206Z,11.65
2023-04-09T11:23:40.211Z,11.66
2023-04-09T11:24:40.200Z,11.67
2023-04-09T11:25:40.319Z,11.69
2023-04-09T11:26:40.372Z,11.70
2023-04-09T11:27:40.136Z,11.72
2023-04-09T11:28:40.242Z,11.73
2023-04-09T11:29:40.139Z,11.74
2023-04-09T11:30:40.182Z,11.75
2023-04-09T11:31:40.264Z,11.76
2023-04-09T11:32:40.212Z,11.77
2023-04-09T11:33:40.182Z,11.78
2023-04-09T11:34:40.174Z,11.79
2023-04-09T11:35:40.181Z,11.79
2023-04-09T11:36:40.159Z,11.79
2023-04-09T11:37:40.080Z,11.80
2023-04-09T11:38:40.173Z,11.80
2023-04-09T11:39:40.039Z,11.80
2023-04-09T11:40:39.991Z,11.80
2023-04-09T11:41:40.023Z,11.80
2023-04-09T11:42:40.032Z,11.80
2023-04-09T11:43:40.007Z,11.81
2023-04-09T11:44:39.943Z,11.82
2023-04-09T11:45:39.966Z,11.82
2023-04-09T11:46:40.232Z,11.83
2023-04-09T11:47:40.071Z,11.83
2023-04-09T11:48:39.917Z,11.84
2023-04-09T11:49:39.911Z,11.84
2023-04-09T11:50:39.868Z,11.84
2023-04-09T11:51:39.957Z,11.85
2023-04-09T11:52:39.954Z,11.85
2023-04-09T11:53:39.847Z,11.86
2023-04-09T11:54:39.965Z,11.87
2023-04-09T11:55:39.930Z,11.88
2023-04-09T11:56:39.813Z,11.89
2023-04-09T11:57:39.803Z,11.90
2023-04-09T11:58:39.884Z,11.91
2023-04-09T11:59:40.111Z,11.91
2023-04-09T12:00:39.932Z,11.92
2023-04-09T12:01:39.910Z,11.92
2023-04-09T12:02:39.959Z,11.92
2023-04-09T12:03:40.041Z,11.92
2023-04-09T12:04:39.911Z,11.92
2023-04-09T12:05:41.909Z,11.92
2023-04-09T12:06:39.753Z,11.92
2023-04-09T12:07:42.331Z,11.92
2023-04-09T12:08:40.782Z,11.92
2023-04-09T12:09:39.670Z,11.92
2023-04-09T12:10:39.737Z,11.93
2023-04-09T12:11:39.781Z,11.93
2023-04-09T12:12:39.626Z,11.93
2023-04-09T12:13:39.707Z,11.93
2023-04-09T12:14:39.688Z,11.94
2023-04-09T12:15:39.590Z,11.94
2023-04-09T12:16:39.659Z,11.95
2023-04-09T12:17:39.630Z,11.95
2023-04-09T12:18:40.063Z,11.96
2023-04-09T12:19:39.709Z,11.97
2023-04-09T12:20:39.617Z,11.97
2023-04-09T12:21:39.677Z,11.98
2023-04-09T12:22:39.511Z,11.99
2023-04-09T12:23:39.568Z,11.99
2023-04-09T12:24:39.574Z,12.00
2023-04-09T12:25:39.533Z,12.00
2023-04-09T12:26:39.624Z,12.00
2023-04-09T12:27:39.514Z,12.01
2023-04-09T12:28:39.527Z,12.01
2023-04-09T12:29:39.624Z,12.02
2023-04-09T12:30:39.524Z,12.02
2023-04-09T12:31:39.536Z,12.03
2023-04-09T12:32:39.524Z,12.04
2023-04-09T12:33:39.437Z,12.05
2023-04-09T12:34:39.570Z,12.06
2023-04-09T12:35:39.547Z,12.07
2023-04-09T12:36:39.575Z,12.07
2023-04-09T12:37:39.431Z,12.08
2023-04-09T12:38:39.380Z,12.09
2023-04-09T12:39:39.338Z,12.09
2023-04-09T12:40:39.337Z,12.09
2023-04-09T12:41:39.337Z,12.10
2023-04-09T12:42:39.318Z,12.10
2023-04-09T12:43:39.335Z,12.10
2023-04-09T12:44:39.306Z,12.10
2023-04-09T12:45:39.415Z,12.10
2023-04-09T12:46:39.296Z,12.10
2023-04-09T12:47:39.288Z,12.10
2023-04-09T12:48:40.283Z,12.09
2023-04-09T12:49:41.736Z,12.09
2023-04-09T12:50:39.224Z,12.09
2023-04-09T12:51:39.203Z,12.09
2023-04-09T12:52:39.236Z,12.08
2023-04-09T12:53:39.348Z,12.08
2023-04-09T12:54:39.208Z,12.09
2023-04-09T12:55:41.497Z,12.09
2023-04-09T12:56:39.297Z,12.09
2023-04-09T12:57:39.167Z,12.10
2023-04-09T12:58:39.152Z,12.10
2023-04-09T12:59:39.323Z,12.10
2023-04-09T13:00:39.162Z,12.10
2023-04-09T13:01:42.033Z,12.10
2023-04-09T13:02:39.329Z,12.10
2023-04-09T13:03:39.220Z,12.10
2023-04-09T13:04:39.273Z,12.10
2023-04-09T13:05:39.119Z,12.11
2023-04-09T13:06:39.035Z,12.11
2023-04-09T13:07:40.313Z,12.11
2023-04-09T13:08:39.007Z,12.11
2023-04-09T13:09:39.074Z,12.11
2023-04-09T13:10:39.090Z,12.12